createdAt,value
2019-01-30T00:03:51.187Z,95.70
2019-01-30T00:08:02.019Z,95.70
2019-01-30T00:12:12.977Z,95.60
2019-01-30T00:16:23.909Z,95.90
2019-01-30T00:20:35.921Z,95.50
2019-01-30T00:24:47.128Z,95.60
2019-01-30T00:28:58.055Z,95.50
2019-01-30T00:33:08.900Z,95.50
2019-01-30T00:37:21.204Z,95.30
2019-01-30T00:41:32.757Z,95.70
2019-01-30T00:45:44.033Z,95.30
2019-01-30T00:49:54.858Z,95.20
2019-01-30T00:54:07.088Z,95.10
2019-01-30T00:58:18.301Z,95.10
2019-01-30T01:02:29.206Z,95.10
2019-01-30T01:06:40.222Z,95.00
2019-01-30T01:10:51.272Z,95.00
2019-01-30T01:15:02.195Z,94.90
2019-01-30T01:19:14.058Z,94.90
2019-01-30T01:23:24.898Z,94.70
2019-01-30T01:27:37.177Z,94.60
2019-01-30T01:31:49.626Z,94.50
2019-01-30T01:36:02.185Z,94.20
2019-01-30T01:40:17.503Z,94.00
2019-01-30T01:44:29.425Z,93.90
2019-01-30T01:48:41.243Z,93.90
2019-01-30T01:52:52.195Z,94.00
2019-01-30T01:57:03.049Z,94.10
2019-01-30T02:01:13.885Z,94.10
2019-01-30T02:05:24.859Z,94.10
2019-01-30T02:09:37.429Z,94.30
2019-01-30T02:13:48.360Z,94.30
2019-01-30T02:18:04.602Z,94.30
2019-01-30T02:22:16.358Z,94.30
2019-01-30T02:26:27.284Z,94.30
2019-01-30T02:30:47.252Z,94.30
2019-01-30T02:34:50.832Z,94.30
2019-01-30T02:39:01.802Z,94.30
2019-01-30T02:43:14.254Z,94.40
2019-01-30T02:47:26.261Z,94.40
2019-01-30T02:51:37.276Z,94.40
2019-01-30T02:55:48.113Z,94.40
2019-01-30T02:59:59.947Z,94.50
2019-01-30T03:04:12.509Z,94.50
2019-01-30T03:08:25.292Z,94.50
2019-01-30T03:12:36.134Z,94.50
2019-01-30T03:16:47.062Z,94.50
2019-01-30T03:20:57.880Z,94.60
2019-01-30T03:25:11.812Z,94.60
2019-01-30T03:29:22.727Z,94.70
2019-01-30T03:33:33.748Z,94.70
2019-01-30T03:37:44.558Z,94.80
2019-01-30T03:41:55.375Z,94.80
2019-01-30T03:46:07.471Z,94.80
2019-01-30T03:50:18.736Z,94.80
2019-01-30T03:54:30.585Z,94.70
2019-01-30T03:58:41.405Z,94.80
2019-01-30T04:02:52.700Z,94.70
2019-01-30T04:07:03.516Z,94.50
2019-01-30T04:11:16.060Z,94.40
2019-01-30T04:15:26.892Z,94.30
2019-01-30T04:19:37.819Z,94.30
2019-01-30T04:23:48.735Z,94.30
2019-01-30T04:28:02.595Z,94.20
2019-01-30T04:32:13.344Z,94.20
2019-01-30T04:36:24.465Z,94.20
2019-01-30T04:40:35.359Z,94.20
2019-01-30T04:44:47.218Z,94.20
2019-01-30T04:48:59.615Z,94.30
2019-01-30T04:53:10.523Z,94.30
2019-01-30T04:57:23.000Z,94.30
2019-01-30T05:01:33.928Z,94.20
2019-01-30T05:05:44.844Z,94.10
2019-01-30T05:09:56.887Z,94.50
2019-01-30T05:14:07.803Z,94.20
2019-01-30T05:18:18.723Z,94.20
2019-01-30T05:22:29.556Z,94.20
2019-01-30T05:26:40.424Z,94.20
2019-01-30T05:30:51.394Z,94.20
2019-01-30T05:35:04.632Z,94.20
2019-01-30T05:39:18.354Z,94.20
2019-01-30T05:43:29.183Z,94.30
2019-01-30T05:47:41.719Z,94.40
2019-01-30T05:51:52.918Z,94.40
2019-01-30T05:56:03.934Z,94.40
2019-01-30T06:00:18.676Z,94.50
2019-01-30T06:04:31.154Z,94.50
2019-01-30T06:08:42.250Z,94.60
2019-01-30T06:12:53.206Z,94.60
2019-01-30T06:17:04.187Z,94.60
2019-01-30T06:21:15.666Z,94.70
2019-01-30T06:25:26.579Z,94.80
2019-01-30T06:29:37.683Z,95.10
2019-01-30T06:33:48.609Z,94.80
2019-01-30T06:37:59.428Z,94.80
2019-01-30T06:42:10.416Z,94.80
2019-01-30T06:46:21.332Z,94.70
2019-01-30T06:50:32.264Z,94.70
2019-01-30T06:54:43.092Z,94.60
2019-01-30T06:58:54.009Z,94.70
2019-01-30T07:03:04.926Z,94.70
2019-01-30T07:07:15.750Z,94.60
2019-01-30T07:11:26.694Z,94.60
2019-01-30T07:15:37.616Z,94.50
2019-01-30T07:19:48.525Z,94.40
2019-01-30T07:23:59.340Z,94.30
2019-01-30T07:28:10.870Z,94.50
2019-01-30T07:32:21.845Z,94.10
2019-01-30T07:36:32.766Z,94.00
2019-01-30T07:40:44.803Z,93.80
2019-01-30T07:44:55.634Z,93.60
2019-01-30T07:49:06.460Z,93.40
2019-01-30T07:53:17.396Z,93.10
2019-01-30T07:57:28.558Z,92.90
2019-01-30T08:01:39.567Z,92.70
2019-01-30T08:05:50.390Z,92.50
2019-01-30T08:10:01.298Z,92.30
2019-01-30T08:14:12.218Z,91.80
2019-01-30T08:18:23.147Z,91.40
2019-01-30T08:22:34.095Z,91.20
2019-01-30T08:26:44.967Z,90.70
2019-01-30T08:30:55.790Z,90.10
2019-01-30T08:35:08.428Z,86.90
2019-01-30T08:39:19.444Z,85.20
2019-01-30T08:43:30.308Z,83.90
2019-01-30T08:47:41.254Z,83.40
2019-01-30T08:51:52.279Z,82.60
2019-01-30T08:56:03.184Z,80.50
2019-01-30T09:00:18.844Z,79.50
2019-01-30T09:04:30.366Z,77.00
2019-01-30T09:08:41.165Z,75.30
2019-01-30T09:12:51.981Z,74.90
2019-01-30T09:17:06.741Z,74.90
2019-01-30T09:21:16.466Z,75.20
2019-01-30T09:25:29.333Z,75.80
2019-01-30T09:29:40.141Z,77.00
2019-01-30T09:33:51.124Z,77.60
2019-01-30T09:38:00.885Z,78.50
2019-01-30T09:42:11.842Z,78.10
2019-01-30T09:46:22.892Z,77.90
2019-01-30T09:50:34.707Z,77.10
2019-01-30T09:54:45.718Z,75.40
2019-01-30T09:58:56.648Z,73.20
2019-01-30T10:03:07.618Z,69.80
2019-01-30T10:07:20.229Z,66.40
2019-01-30T10:11:31.046Z,64.40
2019-01-30T10:15:45.638Z,63.40
2019-01-30T10:19:57.634Z,62.10
2019-01-30T10:24:08.456Z,61.10
2019-01-30T10:28:19.267Z,59.30
2019-01-30T10:32:30.195Z,58.90
2019-01-30T10:36:41.029Z,59.10
2019-01-30T10:40:51.832Z,58.80
2019-01-30T10:45:02.795Z,58.90
2019-01-30T10:49:14.811Z,57.60
2019-01-30T10:53:26.090Z,57.60
2019-01-30T10:57:37.012Z,58.10
2019-01-30T11:01:48.031Z,58.90
2019-01-30T11:05:58.852Z,59.50
2019-01-30T11:10:15.211Z,59.50
2019-01-30T11:14:26.105Z,60.00
2019-01-30T11:18:36.984Z,58.70
2019-01-30T11:22:47.845Z,58.10
2019-01-30T11:26:58.747Z,58.00
2019-01-30T11:31:09.647Z,56.90
2019-01-30T11:35:20.825Z,56.10
2019-01-30T11:39:31.791Z,54.80
2019-01-30T11:43:42.703Z,53.50
2019-01-30T11:47:53.517Z,52.90
2019-01-30T11:52:04.415Z,52.00
2019-01-30T11:56:15.231Z,50.10
2019-01-30T12:00:33.112Z,49.20
2019-01-30T12:04:43.986Z,47.90
2019-01-30T12:08:54.825Z,48.10
2019-01-30T12:13:05.843Z,48.70
2019-01-30T12:17:16.663Z,51.20
2019-01-30T12:21:27.579Z,51.00
2019-01-30T12:25:38.491Z,51.20
2019-01-30T12:29:49.324Z,50.80
2019-01-30T12:34:00.281Z,50.70
2019-01-30T12:38:11.194Z,52.90
2019-01-30T12:42:22.005Z,54.30
2019-01-30T12:46:32.934Z,55.10
2019-01-30T12:50:43.943Z,56.10
2019-01-30T12:54:54.762Z,58.90
2019-01-30T12:59:05.686Z,61.30
2019-01-30T13:03:16.525Z,63.30
2019-01-30T13:07:27.545Z,64.80
2019-01-30T13:11:38.573Z,65.60
2019-01-30T13:15:49.487Z,66.40
2019-01-30T13:20:00.531Z,66.80
2019-01-30T13:24:12.254Z,67.40
2019-01-30T13:28:23.156Z,67.20
2019-01-30T13:32:33.974Z,67.70
2019-01-30T13:36:44.777Z,68.50
2019-01-30T13:40:57.164Z,69.30
2019-01-30T13:45:13.631Z,69.60
2019-01-30T13:49:24.539Z,69.60
2019-01-30T13:53:37.189Z,69.60
2019-01-30T13:57:47.678Z,70.20
2019-01-30T14:01:58.469Z,70.20
2019-01-30T14:06:09.605Z,70.30
2019-01-30T14:10:20.535Z,70.60
2019-01-30T14:14:31.459Z,71.20
2019-01-30T14:18:43.326Z,70.60
2019-01-30T14:22:54.222Z,71.10
2019-01-30T14:27:05.081Z,71.40
2019-01-30T14:31:16.014Z,71.60
2019-01-30T14:35:30.019Z,71.90
2019-01-30T14:39:40.996Z,72.20
2019-01-30T14:43:51.976Z,72.00
2019-01-30T14:48:04.982Z,71.80
2019-01-30T14:52:15.918Z,71.70
2019-01-30T14:56:26.931Z,71.70
2019-01-30T15:00:37.942Z,71.60
2019-01-30T15:04:50.071Z,71.60
2019-01-30T15:09:01.073Z,71.70
2019-01-30T15:13:12.501Z,72.00
2019-01-30T15:17:23.353Z,72.50
2019-01-30T15:21:34.161Z,73.30
2019-01-30T15:25:45.058Z,73.60
2019-01-30T15:29:55.873Z,74.10
2019-01-30T15:34:06.713Z,74.80
2019-01-30T15:38:16.876Z,74.90
2019-01-30T15:42:27.772Z,75.40
2019-01-30T15:46:38.614Z,76.00
2019-01-30T15:50:49.609Z,76.30
2019-01-30T15:55:00.777Z,76.70
2019-01-30T15:59:11.660Z,76.90
2019-01-30T16:03:22.584Z,77.10
2019-01-30T16:07:33.739Z,77.30
2019-01-30T16:11:45.022Z,77.40
2019-01-30T16:15:58.883Z,77.60
2019-01-30T16:20:12.327Z,77.70
2019-01-30T16:24:23.275Z,77.80
2019-01-30T16:28:34.793Z,77.80
2019-01-30T16:32:45.754Z,77.70
2019-01-30T16:36:57.131Z,77.70
2019-01-30T16:41:09.225Z,77.80
2019-01-30T16:45:25.968Z,77.60
2019-01-30T16:49:38.358Z,77.50
2019-01-30T16:53:49.302Z,77.70
2019-01-30T16:58:00.462Z,77.50
2019-01-30T17:02:11.449Z,77.40
2019-01-30T17:06:22.468Z,77.50
2019-01-30T17:10:33.399Z,77.50
2019-01-30T17:14:44.316Z,77.40
2019-01-30T17:18:55.827Z,77.40
2019-01-30T17:23:06.756Z,77.40
2019-01-30T17:27:17.799Z,77.30
2019-01-30T17:31:28.612Z,77.30
2019-01-30T17:35:40.170Z,77.10
2019-01-30T17:39:50.990Z,77.30
2019-01-30T17:44:02.043Z,77.50
2019-01-30T17:48:14.667Z,77.50
2019-01-30T17:52:26.183Z,77.50
2019-01-30T17:56:37.000Z,77.20
2019-01-30T18:00:49.490Z,76.30
2019-01-30T18:05:03.350Z,75.70
2019-01-30T18:09:14.615Z,75.40
2019-01-30T18:13:26.211Z,75.20
2019-01-30T18:17:38.175Z,75.00
2019-01-30T18:21:49.593Z,75.10
2019-01-30T18:26:02.953Z,75.00
2019-01-30T18:30:19.164Z,74.90
2019-01-30T18:34:31.785Z,75.10
2019-01-30T18:38:42.747Z,74.90
2019-01-30T18:42:55.224Z,75.20
2019-01-30T18:47:06.040Z,75.40
2019-01-30T18:51:17.704Z,75.40
2019-01-30T18:55:31.026Z,75.40
2019-01-30T18:59:41.365Z,75.60
2019-01-30T19:03:54.651Z,75.80
2019-01-30T19:08:06.596Z,75.80
2019-01-30T19:12:18.153Z,75.70
2019-01-30T19:16:29.095Z,76.00
2019-01-30T19:20:45.046Z,75.80
2019-01-30T19:24:58.235Z,76.10
2019-01-30T19:29:11.461Z,76.50
2019-01-30T19:33:22.498Z,76.80
2019-01-30T19:37:38.020Z,77.00
2019-01-30T19:41:52.317Z,77.20
2019-01-30T19:46:03.391Z,77.20
2019-01-30T19:50:20.905Z,77.40
2019-01-30T19:54:32.754Z,77.20
2019-01-30T19:58:44.872Z,77.20
2019-01-30T20:02:55.888Z,77.40
2019-01-30T20:07:14.396Z,77.20
2019-01-30T20:11:19.317Z,77.10
2019-01-30T20:15:30.695Z,76.90
2019-01-30T20:19:41.543Z,76.60
2019-01-30T20:23:52.611Z,76.30
2019-01-30T20:28:03.589Z,75.80
2019-01-30T20:32:14.518Z,75.00
2019-01-30T20:36:25.340Z,75.60
2019-01-30T20:40:36.150Z,75.50
2019-01-30T20:44:48.408Z,75.50
2019-01-30T20:48:59.268Z,75.60
2019-01-30T20:53:10.085Z,75.70
2019-01-30T20:57:20.946Z,75.80
2019-01-30T21:01:31.753Z,75.70
2019-01-30T21:05:44.837Z,76.10
2019-01-30T21:09:55.084Z,76.30
2019-01-30T21:14:05.928Z,76.40
2019-01-30T21:18:18.293Z,76.70
2019-01-30T21:22:29.444Z,77.00
2019-01-30T21:26:40.301Z,77.30
2019-01-30T21:30:51.128Z,77.30
2019-01-30T21:35:01.935Z,77.30
2019-01-30T21:39:12.889Z,77.60
2019-01-30T21:43:24.015Z,77.70
2019-01-30T21:47:34.836Z,77.80
2019-01-30T21:51:46.632Z,78.20
2019-01-30T21:55:57.556Z,78.10
2019-01-30T22:00:18.705Z,78.20
2019-01-30T22:04:30.104Z,78.30
2019-01-30T22:08:41.066Z,78.30
2019-01-30T22:12:51.976Z,78.40
2019-01-30T22:17:02.886Z,78.40
2019-01-30T22:21:13.754Z,78.40
2019-01-30T22:25:25.499Z,78.00
2019-01-30T22:29:36.311Z,77.50
2019-01-30T22:33:47.225Z,77.50
2019-01-30T22:37:58.044Z,77.70
2019-01-30T22:42:09.004Z,77.50
2019-01-30T22:46:19.954Z,77.50
2019-01-30T22:50:30.772Z,77.60
2019-01-30T22:54:42.525Z,77.70
2019-01-30T22:58:55.004Z,77.70
2019-01-30T23:03:06.077Z,77.70
2019-01-30T23:07:23.960Z,77.70
2019-01-30T23:11:57.764Z,77.90
2019-01-30T23:16:12.030Z,77.80
2019-01-30T23:20:23.003Z,77.80
2019-01-30T23:24:53.346Z,77.70
2019-01-30T23:29:24.327Z,77.40
2019-01-30T23:33:38.608Z,77.50
2019-01-30T23:38:04.867Z,77.50
2019-01-30T23:42:19.107Z,77.80
2019-01-30T23:46:59.222Z,77.90
2019-01-30T23:51:24.995Z,77.90
2019-01-30T23:55:45.042Z,78.00
